Terminal Aerodrome Forecast
Issued by NWS Twin Cities, MN

Home | Current Version | Previous Version | Text Only | Print | Product List | Glossary On
Versions: 1 2 3 4 5 6 7 8 9 10 11 12 13
730
FTUS43 KMPX 240846 AAA
TAFEAU
TAF AMD
KEAU 240846Z 2409/2506 31013G21KT P6SM VCSH OVC030
      TEMPO 2412/2415 OVC035
     FM241500 33020G33KT P6SM BKN040
     FM242000 31023G34KT P6SM SCT100
     FM242300 31017G26KT P6SM FEW250
     FM250200 31010KT P6SM FEW250
      AMD NOT SKED=

USA.gov is the U.S. government's official web portal to all federal, state and local government web resources and services.